Time;durP1;ratioP1;P1;durP2;ratioP2;P2;SDS_P1;SDS_P2;PMS_P1;PMS_P2;Temp;Humidity;BMP_temperature;BMP_pressure;BME280_temperature;BME280_humidity;BME280_pressure;Samples;Min_cycle;Max_cycle;Signal;HPM_P1;HPM_P2
2022/04/14 00:01:15;;;;;;;9.93;8.50;;;;;;;;;;6073255;29;20232;-72
2022/04/14 00:04:36;;;;;;;11.83;10.63;;;;;;;;;;6082008;29;20582;-71
2022/04/14 00:07:58;;;;;;;12.53;9.77;;;;;;;;;;6072428;29;20217;-71
2022/04/14 00:11:19;;;;;;;9.87;8.53;;;;;;;;;;6085891;29;20236;-71
2022/04/14 00:14:39;;;;;;;10.13;8.83;;;;;;;;;;6080129;29;20701;-71
2022/04/14 00:18:00;;;;;;;10.77;7.97;;;;;;;;;;6083766;29;20331;-71
2022/04/14 00:21:21;;;;;;;12.07;9.47;;;;;;;;;;6081177;29;20240;-70
2022/04/14 00:24:43;;;;;;;12.60;10.10;;;;;;;;;;6085399;29;20236;-73
2022/04/14 00:28:04;;;;;;;9.80;8.43;;;;;;;;;;6083326;29;20245;-71
2022/04/14 00:31:24;;;;;;;11.60;8.87;;;;;;;;;;6085604;29;20241;-71
2022/04/14 00:34:45;;;;;;;11.50;10.30;;;;;;;;;;6084023;29;20614;-72
2022/04/14 00:38:06;;;;;;;12.67;11.27;;;;;;;;;;6084035;29;20244;-72
2022/04/14 00:41:28;;;;;;;20.27;15.70;;;;;;;;;;6085128;29;20236;-71
2022/04/14 00:44:48;;;;;;;19.70;16.10;;;;;;;;;;6082886;29;20236;-72
2022/04/14 00:48:09;;;;;;;22.87;20.47;;;;;;;;;;6083203;29;20232;-71
2022/04/14 00:51:30;;;;;;;22.23;19.93;;;;;;;;;;6080013;29;20245;-70
2022/04/14 00:54:50;;;;;;;23.17;20.53;;;;;;;;;;6080641;29;20241;-72
2022/04/14 00:58:12;;;;;;;23.77;20.77;;;;;;;;;;6084770;29;20263;-71
2022/04/14 01:01:33;;;;;;;21.87;19.77;;;;;;;;;;6077784;29;20420;-72
2022/04/14 01:04:53;;;;;;;20.90;18.70;;;;;;;;;;6080819;29;20606;-72
2022/04/14 01:08:16;;;;;;;27.60;22.33;;;;;;;;;;6079594;29;20237;-72
2022/04/14 01:11:37;;;;;;;24.60;20.73;;;;;;;;;;6079984;29;20244;-72
2022/04/14 01:14:59;;;;;;;32.40;26.37;;;;;;;;;;6078190;29;20232;-72
2022/04/14 01:18:19;;;;;;;27.67;24.67;;;;;;;;;;6078977;29;20567;-72
2022/04/14 01:21:42;;;;;;;26.67;23.80;;;;;;;;;;6075772;29;20224;-72
2022/04/14 01:25:04;;;;;;;32.77;25.03;;;;;;;;;;6085641;29;20469;-71
2022/04/14 01:28:25;;;;;;;27.57;24.80;;;;;;;;;;6085438;29;20228;-71
2022/04/14 01:31:45;;;;;;;28.30;24.40;;;;;;;;;;6090303;29;20244;-71
2022/04/14 01:35:07;;;;;;;26.63;23.90;;;;;;;;;;6085240;29;20593;-73
2022/04/14 01:38:27;;;;;;;25.57;22.97;;;;;;;;;;6087476;29;20232;-71
2022/04/14 01:41:50;;;;;;;25.33;22.73;;;;;;;;;;6081543;29;20639;-72
2022/04/14 01:45:11;;;;;;;24.33;20.00;;;;;;;;;;6084244;29;21217;-73
2022/04/14 01:48:32;;;;;;;25.03;22.43;;;;;;;;;;6083707;29;20801;-72
2022/04/14 01:51:53;;;;;;;24.53;21.53;;;;;;;;;;6076481;29;20260;-72
2022/04/14 01:55:13;;;;;;;22.97;20.67;;;;;;;;;;6085756;29;20636;-72
2022/04/14 01:58:35;;;;;;;20.40;18.30;;;;;;;;;;6084453;29;20244;-72
2022/04/14 02:01:56;;;;;;;22.67;19.00;;;;;;;;;;6086662;29;20633;-70
2022/04/14 02:05:17;;;;;;;20.57;18.37;;;;;;;;;;6085795;29;20236;-71
2022/04/14 02:08:37;;;;;;;21.60;17.17;;;;;;;;;;6085291;29;20244;-71
2022/04/14 02:11:58;;;;;;;21.83;19.57;;;;;;;;;;6084553;29;20248;-71
2022/04/14 02:15:20;;;;;;;22.20;19.97;;;;;;;;;;6086177;29;20228;-72
2022/04/14 02:18:41;;;;;;;21.87;19.77;;;;;;;;;;6078353;29;20229;-71
2022/04/14 02:22:01;;;;;;;21.20;18.93;;;;;;;;;;6089158;29;20232;-71
2022/04/14 02:25:22;;;;;;;21.67;19.17;;;;;;;;;;6077996;29;20241;-71
2022/04/14 02:28:43;;;;;;;21.20;18.90;;;;;;;;;;6088688;29;20229;-70
2022/04/14 02:32:05;;;;;;;22.50;18.60;;;;;;;;;;6084300;29;20328;-70
2022/04/14 02:35:26;;;;;;;22.80;20.47;;;;;;;;;;6083012;29;20229;-71
2022/04/14 02:38:47;;;;;;;22.87;20.27;;;;;;;;;;6084361;29;20233;-71
2022/04/14 02:42:08;;;;;;;22.53;20.07;;;;;;;;;;6087951;29;20221;-71
2022/04/14 02:45:28;;;;;;;20.17;17.83;;;;;;;;;;6086534;29;20229;-71
2022/04/14 02:48:50;;;;;;;19.57;17.60;;;;;;;;;;6084428;29;20248;-71
2022/04/14 02:52:10;;;;;;;19.13;17.17;;;;;;;;;;6082222;29;20646;-72
2022/04/14 02:55:31;;;;;;;19.80;17.67;;;;;;;;;;6085411;29;20517;-71
2022/04/14 02:58:51;;;;;;;21.87;19.57;;;;;;;;;;6056510;29;20260;-71
2022/04/14 03:02:12;;;;;;;22.53;20.17;;;;;;;;;;6087371;29;20247;-70
2022/04/14 03:05:34;;;;;;;21.23;19.13;;;;;;;;;;6085208;29;20503;-71
2022/04/14 03:08:54;;;;;;;27.17;24.37;;;;;;;;;;6084339;29;20225;-71
2022/04/14 03:12:15;;;;;;;25.33;22.43;;;;;;;;;;6080403;29;20232;-72
2022/04/14 03:15:35;;;;;;;23.77;21.30;;;;;;;;;;6086001;29;20240;-73
2022/04/14 03:18:56;;;;;;;21.83;19.60;;;;;;;;;;6082628;29;20264;-71
2022/04/14 03:22:18;;;;;;;24.33;21.53;;;;;;;;;;6081957;29;20952;-70
2022/04/14 03:25:38;;;;;;;24.93;21.47;;;;;;;;;;6085727;29;20256;-72
2022/04/14 03:28:59;;;;;;;29.47;21.43;;;;;;;;;;6084229;29;20224;-71
2022/04/14 03:32:22;;;;;;;22.63;20.23;;;;;;;;;;6087009;29;20237;-71
2022/04/14 03:35:42;;;;;;;22.20;19.83;;;;;;;;;;6084785;29;20241;-71
2022/04/14 03:39:04;;;;;;;23.90;21.30;;;;;;;;;;6085460;29;20229;-71
2022/04/14 03:42:26;;;;;;;26.80;23.93;;;;;;;;;;6085137;29;20257;-71
2022/04/14 03:45:47;;;;;;;28.43;23.77;;;;;;;;;;6081224;29;20706;-71
2022/04/14 03:49:08;;;;;;;24.93;22.43;;;;;;;;;;6073293;29;20244;-71
2022/04/14 03:52:28;;;;;;;25.23;22.60;;;;;;;;;;6083489;29;20240;-71
2022/04/14 03:55:51;;;;;;;26.97;23.83;;;;;;;;;;6083271;29;20654;-71
2022/04/14 03:59:13;;;;;;;24.70;22.20;;;;;;;;;;6085159;29;20599;-71
2022/04/14 04:02:35;;;;;;;24.23;21.83;;;;;;;;;;6082927;29;20236;-73
2022/04/14 04:05:55;;;;;;;24.40;21.70;;;;;;;;;;6087375;29;20228;-72
2022/04/14 04:09:16;;;;;;;25.83;21.97;;;;;;;;;;6081331;29;20275;-72
2022/04/14 04:12:38;;;;;;;24.50;19.77;;;;;;;;;;6082339;29;20236;-71
2022/04/14 04:15:58;;;;;;;25.53;22.20;;;;;;;;;;6078623;29;20264;-72
2022/04/14 04:19:19;;;;;;;21.87;19.60;;;;;;;;;;6082751;29;20228;-71
2022/04/14 04:22:40;;;;;;;23.03;20.53;;;;;;;;;;6083525;29;20235;-72
2022/04/14 04:26:01;;;;;;;24.13;21.63;;;;;;;;;;6079807;29;20240;-72
2022/04/14 04:29:23;;;;;;;26.40;22.00;;;;;;;;;;6085430;29;20544;-71
2022/04/14 04:32:43;;;;;;;25.03;21.07;;;;;;;;;;6082798;29;20348;-71
2022/04/14 04:36:04;;;;;;;22.87;20.57;;;;;;;;;;6081070;29;20617;-71
2022/04/14 04:39:25;;;;;;;26.73;22.60;;;;;;;;;;6084592;29;20233;-71
2022/04/14 04:42:45;;;;;;;27.27;22.20;;;;;;;;;;6082535;29;20603;-72
2022/04/14 04:46:08;;;;;;;25.43;22.90;;;;;;;;;;6083782;29;20248;-71
2022/04/14 04:49:28;;;;;;;24.77;22.17;;;;;;;;;;6084139;29;20236;-70
2022/04/14 04:52:49;;;;;;;25.33;22.67;;;;;;;;;;6083799;29;20235;-72
2022/04/14 04:56:09;;;;;;;24.00;21.40;;;;;;;;;;6082114;29;20237;-71
2022/04/14 04:59:30;;;;;;;23.33;20.87;;;;;;;;;;6089766;29;20236;-73
2022/04/14 05:02:52;;;;;;;23.23;20.57;;;;;;;;;;6090778;29;20611;-72
2022/04/14 05:06:12;;;;;;;27.67;23.20;;;;;;;;;;6088431;29;20706;-71
2022/04/14 05:09:33;;;;;;;24.30;21.70;;;;;;;;;;6088898;29;20938;-71
2022/04/14 05:12:53;;;;;;;31.17;23.10;;;;;;;;;;6059254;29;20306;-72
2022/04/14 05:16:14;;;;;;;26.20;21.93;;;;;;;;;;6083184;29;20713;-72
2022/04/14 05:19:35;;;;;;;25.47;22.87;;;;;;;;;;6085476;29;20265;-72
2022/04/14 05:22:56;;;;;;;23.90;21.07;;;;;;;;;;6086319;29;20228;-72
2022/04/14 05:26:17;;;;;;;26.60;22.90;;;;;;;;;;6083667;29;20229;-71
2022/04/14 05:29:38;;;;;;;26.17;22.93;;;;;;;;;;6090485;29;20248;-71
2022/04/14 05:32:59;;;;;;;24.60;20.63;;;;;;;;;;6081556;29;20244;-73
2022/04/14 05:36:21;;;;;;;23.37;19.20;;;;;;;;;;6088326;29;20224;-72
2022/04/14 05:39:41;;;;;;;24.20;19.20;;;;;;;;;;6078017;29;20236;-73
2022/04/14 05:43:02;;;;;;;23.70;19.10;;;;;;;;;;6081486;29;20266;-72
2022/04/14 05:46:23;;;;;;;22.33;19.77;;;;;;;;;;6081215;29;20236;-73
2022/04/14 05:49:43;;;;;;;25.67;21.20;;;;;;;;;;6088798;29;20236;-73
2022/04/14 05:53:08;;;;;;;22.83;20.53;;;;;;;;;;6081576;29;20237;-75
2022/04/14 05:56:29;;;;;;;23.57;21.00;;;;;;;;;;6083338;29;20236;-73
2022/04/14 05:59:50;;;;;;;23.13;20.57;;;;;;;;;;6080477;29;20535;-73
2022/04/14 06:03:11;;;;;;;23.10;20.63;;;;;;;;;;6079798;29;20224;-72
2022/04/14 06:06:31;;;;;;;24.83;22.10;;;;;;;;;;6081631;29;20583;-72
2022/04/14 06:09:53;;;;;;;24.33;20.67;;;;;;;;;;6088557;29;20228;-73
2022/04/14 06:13:14;;;;;;;23.90;21.60;;;;;;;;;;6070626;29;20263;-72
2022/04/14 06:16:34;;;;;;;25.27;22.53;;;;;;;;;;6085064;29;21099;-71
2022/04/14 06:19:56;;;;;;;23.30;20.83;;;;;;;;;;6078062;29;20893;-72
2022/04/14 06:23:17;;;;;;;27.23;21.60;;;;;;;;;;6080967;29;20255;-73
2022/04/14 06:26:39;;;;;;;24.77;22.17;;;;;;;;;;6082639;29;20237;-74
2022/04/14 06:30:00;;;;;;;24.00;21.40;;;;;;;;;;6088254;29;20229;-73
2022/04/14 06:33:21;;;;;;;27.20;22.10;;;;;;;;;;6089461;29;20351;-74
2022/04/14 06:36:41;;;;;;;22.70;20.30;;;;;;;;;;6088619;29;20237;-73
2022/04/14 06:40:02;;;;;;;25.60;21.33;;;;;;;;;;6083827;29;20225;-74
2022/04/14 06:43:24;;;;;;;23.20;20.87;;;;;;;;;;6075484;29;20252;-75
2022/04/14 06:46:45;;;;;;;23.53;21.10;;;;;;;;;;6088360;29;20229;-73
2022/04/14 06:50:06;;;;;;;25.33;22.20;;;;;;;;;;6086805;29;20280;-71
2022/04/14 06:53:27;;;;;;;23.77;21.00;;;;;;;;;;6075335;29;20249;-73
2022/04/14 06:56:47;;;;;;;24.00;21.60;;;;;;;;;;6086502;29;20520;-74
2022/04/14 07:00:10;;;;;;;22.23;19.87;;;;;;;;;;6084101;29;20236;-72
2022/04/14 07:03:31;;;;;;;21.87;19.77;;;;;;;;;;6080492;29;20240;-73
2022/04/14 07:06:51;;;;;;;22.70;19.90;;;;;;;;;;6085786;29;20608;-73
2022/04/14 07:10:13;;;;;;;21.93;19.73;;;;;;;;;;6080105;29;20651;-72
2022/04/14 07:13:33;;;;;;;21.87;19.47;;;;;;;;;;6077686;29;20241;-73
2022/04/14 07:16:55;;;;;;;24.07;21.63;;;;;;;;;;6090628;29;20577;-71
2022/04/14 07:20:16;;;;;;;23.97;20.93;;;;;;;;;;6081586;29;20251;-74
2022/04/14 07:23:37;;;;;;;23.30;21.03;;;;;;;;;;6086008;29;20271;-73
2022/04/14 07:26:57;;;;;;;23.80;20.87;;;;;;;;;;6082948;29;20245;-73
2022/04/14 07:30:19;;;;;;;23.93;21.33;;;;;;;;;;6082191;29;20236;-70
2022/04/14 07:33:42;;;;;;;24.83;22.40;;;;;;;;;;6084732;29;20240;-73
2022/04/14 07:37:03;;;;;;;22.10;20.20;;;;;;;;;;6082241;29;20244;-72
2022/04/14 07:40:24;;;;;;;23.70;21.43;;;;;;;;;;6082362;29;20521;-72
2022/04/14 07:43:44;;;;;;;24.70;22.37;;;;;;;;;;6084813;29;20229;-71
2022/04/14 07:47:05;;;;;;;24.90;22.20;;;;;;;;;;6084477;29;20575;-72
2022/04/14 07:50:27;;;;;;;24.67;22.47;;;;;;;;;;6085744;29;20477;-70
2022/04/14 07:53:48;;;;;;;27.37;24.57;;;;;;;;;;6092126;29;20241;-70
2022/04/14 07:57:08;;;;;;;26.50;23.87;;;;;;;;;;6087967;29;20236;-70
2022/04/14 08:00:29;;;;;;;24.03;21.77;;;;;;;;;;6084700;29;20225;-71
2022/04/14 08:03:51;;;;;;;25.90;23.40;;;;;;;;;;6074312;29;20248;-69
2022/04/14 08:07:13;;;;;;;22.93;20.73;;;;;;;;;;6081606;29;20327;-70
2022/04/14 08:10:33;;;;;;;23.30;21.20;;;;;;;;;;6088538;29;20229;-71
2022/04/14 08:13:54;;;;;;;26.20;23.80;;;;;;;;;;6075308;29;20232;-72
2022/04/14 08:17:14;;;;;;;24.10;21.77;;;;;;;;;;6078269;29;20263;-73
2022/04/14 08:20:35;;;;;;;23.30;21.20;;;;;;;;;;6075960;29;20240;-72
2022/04/14 08:23:58;;;;;;;23.80;21.43;;;;;;;;;;6079155;29;21936;-70
2022/04/14 08:27:19;;;;;;;25.70;22.93;;;;;;;;;;6082940;29;20640;-68
2022/04/14 08:30:40;;;;;;;24.03;21.73;;;;;;;;;;6082272;29;20240;-73
2022/04/14 08:34:03;;;;;;;24.33;21.97;;;;;;;;;;6079370;29;20240;-71
2022/04/14 08:37:23;;;;;;;26.13;23.63;;;;;;;;;;6081432;29;20248;-75
2022/04/14 08:40:47;;;;;;;23.00;20.60;;;;;;;;;;6080482;29;20225;-73
2022/04/14 08:44:11;;;;;;;23.63;21.43;;;;;;;;;;6083091;29;20240;-72
2022/04/14 08:47:32;;;;;;;23.60;21.40;;;;;;;;;;6080772;29;20240;-71
2022/04/14 08:50:54;;;;;;;23.90;21.50;;;;;;;;;;6080336;29;20575;-71
2022/04/14 08:54:15;;;;;;;26.77;24.13;;;;;;;;;;6080330;29;20229;-69
2022/04/14 08:57:37;;;;;;;25.23;23.07;;;;;;;;;;6083118;29;20233;-71
2022/04/14 09:00:58;;;;;;;24.03;21.73;;;;;;;;;;6081343;29;20228;-69
2022/04/14 09:04:19;;;;;;;23.03;20.83;;;;;;;;;;6071566;29;20232;-72
2022/04/14 09:07:40;;;;;;;23.93;21.60;;;;;;;;;;6087310;29;20232;-66
2022/04/14 09:11:01;;;;;;;21.23;19.43;;;;;;;;;;6078526;29;20232;-68
2022/04/14 09:14:23;;;;;;;21.73;19.73;;;;;;;;;;6081448;29;20261;-67
2022/04/14 09:17:43;;;;;;;18.17;16.43;;;;;;;;;;6081415;29;20244;-68
2022/04/14 09:21:04;;;;;;;18.93;17.23;;;;;;;;;;6081745;29;20520;-69
2022/04/14 09:24:38;;;;;;;20.80;18.80;;;;;;;;;;6079681;29;20237;-68
2022/04/14 09:28:07;;;;;;;23.70;18.67;;;;;;;;;;6080841;29;20233;-68
2022/04/14 09:31:29;;;;;;;21.93;19.73;;;;;;;;;;6079966;29;20236;-69
2022/04/14 09:34:51;;;;;;;20.23;18.53;;;;;;;;;;6079388;29;20244;-70
2022/04/14 09:38:13;;;;;;;22.50;20.27;;;;;;;;;;6084600;29;20324;-69
2022/04/14 09:41:35;;;;;;;19.07;17.40;;;;;;;;;;6076754;29;20234;-67
2022/04/14 09:44:56;;;;;;;20.57;18.83;;;;;;;;;;6078327;29;20256;-68
2022/04/14 09:48:20;;;;;;;20.37;18.40;;;;;;;;;;6081877;29;20235;-70
2022/04/14 09:51:42;;;;;;;19.17;16.30;;;;;;;;;;6081942;29;20231;-67
2022/04/14 09:55:09;;;;;;;18.83;17.07;;;;;;;;;;6078636;29;20240;-69
2022/04/14 09:58:32;;;;;;;18.13;16.50;;;;;;;;;;6085451;29;20711;-69
2022/04/14 10:02:10;;;;;;;17.90;15.50;;;;;;;;;;6079734;29;20236;-72
2022/04/14 10:05:35;;;;;;;15.50;14.20;;;;;;;;;;6078184;29;20236;-71
2022/04/14 10:08:56;;;;;;;17.57;16.03;;;;;;;;;;6078672;29;20543;-68
2022/04/14 10:12:31;;;;;;;17.03;15.63;;;;;;;;;;6079385;29;20248;-68
2022/04/14 10:15:53;;;;;;;18.63;16.73;;;;;;;;;;6077329;29;20256;-69
2022/04/14 10:19:14;;;;;;;19.47;17.43;;;;;;;;;;6085381;29;20228;-69
2022/04/14 10:22:38;;;;;;;15.47;14.17;;;;;;;;;;6085910;29;20233;-67
2022/04/14 10:25:59;;;;;;;13.97;12.67;;;;;;;;;;6081130;29;20229;-69
2022/04/14 10:29:21;;;;;;;17.83;14.23;;;;;;;;;;6086468;29;20237;-68
2022/04/14 10:32:42;;;;;;;14.63;13.43;;;;;;;;;;6085104;29;20224;-69
2022/04/14 10:36:03;;;;;;;13.27;12.17;;;;;;;;;;6080467;29;20256;-67
2022/04/14 10:39:27;;;;;;;14.70;13.20;;;;;;;;;;6092628;29;20237;-73
2022/04/14 10:42:50;;;;;;;13.70;12.30;;;;;;;;;;6086819;29;20240;-71
2022/04/14 10:46:14;;;;;;;11.50;10.60;;;;;;;;;;6086881;29;20229;-71
2022/04/14 10:49:36;;;;;;;15.33;13.93;;;;;;;;;;6081263;29;20233;-74
2022/04/14 10:53:17;;;;;;;15.13;13.83;;;;;;;;;;6056114;29;20240;-73
2022/04/14 10:56:46;;;;;;;15.20;13.80;;;;;;;;;;6085808;29;20273;-74
2022/04/14 11:00:25;;;;;;;15.47;13.53;;;;;;;;;;6092236;29;20626;-73
2022/04/14 11:03:47;;;;;;;14.03;12.83;;;;;;;;;;6084698;29;20228;-73
2022/04/14 11:07:12;;;;;;;15.40;13.85;;;;;;;;;;6084259;29;21588;-76
2022/04/14 11:10:33;;;;;;;13.50;12.23;;;;;;;;;;6077556;29;20228;-71
2022/04/14 11:14:08;;;;;;;11.15;10.13;;;;;;;;;;6078250;29;20224;-72
2022/04/14 11:18:00;;;;;;;12.02;11.02;;;;;;;;;;6078721;29;21186;-74
2022/04/14 11:21:31;;;;;;;11.75;10.68;;;;;;;;;;6088034;29;20610;-73
2022/04/14 11:24:52;;;;;;;10.75;9.95;;;;;;;;;;6081734;29;20748;-75
2022/04/14 11:28:16;;;;;;;11.30;10.30;;;;;;;;;;6090779;29;21018;-71
2022/04/14 11:31:44;;;;;;;9.05;8.27;;;;;;;;;;6084378;29;20229;-69
2022/04/14 11:35:09;;;;;;;9.00;8.20;;;;;;;;;;6079816;29;20551;-70
2022/04/14 11:38:48;;;;;;;8.52;7.63;;;;;;;;;;6075817;29;20243;-70
2022/04/14 11:42:10;;;;;;;7.25;6.25;;;;;;;;;;6084313;29;20256;-71
2022/04/14 11:45:31;;;;;;;8.65;7.35;;;;;;;;;;6079008;29;20686;-70
2022/04/14 11:48:53;;;;;;;10.23;9.32;;;;;;;;;;6078508;29;20237;-70
2022/04/14 11:52:15;;;;;;;8.57;7.77;;;;;;;;;;6077218;29;20240;-71
2022/04/14 11:55:38;;;;;;;8.05;7.25;;;;;;;;;;6079028;29;20331;-70
2022/04/14 11:58:58;;;;;;;8.68;7.85;;;;;;;;;;6079006;29;20232;-71
2022/04/14 12:02:20;;;;;;;7.00;6.40;;;;;;;;;;6077435;29;20260;-70
2022/04/14 12:05:48;;;;;;;8.05;7.35;;;;;;;;;;6075365;29;20236;-68
2022/04/14 12:09:10;;;;;;;6.80;5.80;;;;;;;;;;6062771;29;20252;-69
2022/04/14 12:12:31;;;;;;;5.55;4.93;;;;;;;;;;6069437;29;20240;-70
2022/04/14 12:16:02;;;;;;;7.57;6.63;;;;;;;;;;6062665;29;20244;-72
2022/04/14 12:19:23;;;;;;;7.13;6.53;;;;;;;;;;6081324;29;20879;-71
2022/04/14 12:22:44;;;;;;;8.02;7.22;;;;;;;;;;6078334;29;20236;-71
2022/04/14 12:26:05;;;;;;;7.45;6.78;;;;;;;;;;6075992;29;20634;-72
2022/04/14 12:29:26;;;;;;;6.32;5.82;;;;;;;;;;6067255;29;20318;-71
2022/04/14 12:32:47;;;;;;;7.45;5.88;;;;;;;;;;6065652;29;20840;-71
2022/04/14 12:36:08;;;;;;;8.43;7.63;;;;;;;;;;6082532;29;21126;-71
2022/04/14 12:39:30;;;;;;;7.63;6.82;;;;;;;;;;6083648;29;20232;-72
2022/04/14 12:42:50;;;;;;;7.97;7.22;;;;;;;;;;6081799;29;20737;-70
2022/04/14 12:46:20;;;;;;;8.38;6.72;;;;;;;;;;6082664;29;20232;-72
2022/04/14 12:49:41;;;;;;;7.57;6.87;;;;;;;;;;6085777;29;20264;-72
2022/04/14 12:53:01;;;;;;;6.73;5.70;;;;;;;;;;6082567;29;20236;-71
2022/04/14 12:56:23;;;;;;;6.43;5.93;;;;;;;;;;6076104;29;20240;-73
2022/04/14 12:59:59;;;;;;;6.47;5.17;;;;;;;;;;6070335;29;20232;-71
2022/04/14 13:03:21;;;;;;;4.93;4.53;;;;;;;;;;6077020;29;20236;-74
2022/04/14 13:06:42;;;;;;;5.43;4.90;;;;;;;;;;6076318;29;20751;-68
2022/04/14 13:10:03;;;;;;;6.93;4.55;;;;;;;;;;6077982;29;20319;-70
2022/04/14 13:13:32;;;;;;;4.95;4.47;;;;;;;;;;6079409;29;20229;-70
2022/04/14 13:16:53;;;;;;;4.07;3.73;;;;;;;;;;6083776;29;20228;-80
2022/04/14 13:20:16;;;;;;;8.15;5.50;;;;;;;;;;6078728;29;20833;-80
2022/04/14 13:23:36;;;;;;;10.77;5.68;;;;;;;;;;6085969;29;21131;-81
2022/04/14 13:26:58;;;;;;;7.50;6.75;;;;;;;;;;6082092;29;20228;-70
2022/04/14 13:30:21;;;;;;;10.55;7.97;;;;;;;;;;6089860;29;20543;-69
2022/04/14 13:33:41;;;;;;;6.95;6.35;;;;;;;;;;6090486;29;20236;-69
2022/04/14 13:37:02;;;;;;;11.37;10.27;;;;;;;;;;6093325;29;20237;-80
2022/04/14 13:40:23;;;;;;;9.07;7.78;;;;;;;;;;6081175;29;20747;-79
2022/04/14 13:43:43;;;;;;;8.30;7.47;;;;;;;;;;6093966;29;20832;-77
2022/04/14 13:47:05;;;;;;;8.37;7.57;;;;;;;;;;6093069;29;20225;-77
2022/04/14 13:50:25;;;;;;;9.53;8.63;;;;;;;;;;6087048;29;20611;-76
2022/04/14 13:53:46;;;;;;;9.47;8.63;;;;;;;;;;6089774;29;20315;-76
2022/04/14 13:57:07;;;;;;;8.88;8.18;;;;;;;;;;6069624;29;20240;-76
2022/04/14 14:00:27;;;;;;;10.00;9.10;;;;;;;;;;6090861;29;20220;-77
2022/04/14 14:03:49;;;;;;;10.83;9.73;;;;;;;;;;6095199;29;20642;-77
2022/04/14 14:07:10;;;;;;;10.30;9.07;;;;;;;;;;6095710;29;20242;-76
2022/04/14 14:10:30;;;;;;;11.63;10.53;;;;;;;;;;6091085;29;20268;-76
2022/04/14 14:13:51;;;;;;;11.43;10.33;;;;;;;;;;6094527;29;20224;-75
2022/04/14 14:17:12;;;;;;;11.93;10.83;;;;;;;;;;6095127;29;20296;-78
2022/04/14 14:20:34;;;;;;;11.17;10.07;;;;;;;;;;6098293;29;20591;-77
2022/04/14 14:23:55;;;;;;;12.70;11.40;;;;;;;;;;6100163;29;20244;-76
2022/04/14 14:27:15;;;;;;;12.83;11.63;;;;;;;;;;6093811;29;20232;-76
2022/04/14 14:30:36;;;;;;;13.13;11.63;;;;;;;;;;6098670;29;20240;-76
2022/04/14 14:33:57;;;;;;;13.83;10.87;;;;;;;;;;6093018;29;20327;-76
2022/04/14 14:37:19;;;;;;;12.03;10.67;;;;;;;;;;6099338;29;20232;-75
2022/04/14 14:40:40;;;;;;;10.80;9.80;;;;;;;;;;6097062;29;20233;-76
2022/04/14 14:44:01;;;;;;;10.37;9.40;;;;;;;;;;6094443;29;20224;-76
2022/04/14 14:47:22;;;;;;;11.33;9.70;;;;;;;;;;6093909;29;20638;-76
2022/04/14 14:50:42;;;;;;;11.97;10.20;;;;;;;;;;6100094;29;20233;-76
2022/04/14 14:54:05;;;;;;;12.00;10.53;;;;;;;;;;6096272;29;20229;-75
2022/04/14 14:59:12;;;;;;;9.43;7.77;;;;;;;;;;6085668;29;20244;-76
2022/04/14 15:01:07;;;;;;;10.57;8.93;;;;;;;;;;6100950;29;20794;-76
2022/04/14 15:04:28;;;;;;;11.37;9.13;;;;;;;;;;6092416;29;20229;-76
2022/04/14 15:07:51;;;;;;;10.27;9.17;;;;;;;;;;6093385;29;20224;-77
2022/04/14 15:11:13;;;;;;;11.23;10.13;;;;;;;;;;6095281;29;21285;-76
2022/04/14 15:14:34;;;;;;;10.77;9.50;;;;;;;;;;6095950;29;20233;-75
2022/04/14 15:17:55;;;;;;;13.90;8.97;;;;;;;;;;6095694;29;20237;-76
2022/04/14 15:21:15;;;;;;;12.00;8.50;;;;;;;;;;6096344;29;20240;-76
2022/04/14 15:24:36;;;;;;;17.27;15.13;;;;;;;;;;6097943;29;20233;-76
2022/04/14 15:27:58;;;;;;;8.97;7.90;;;;;;;;;;6090928;29;20233;-76
2022/04/14 15:31:19;;;;;;;12.03;8.70;;;;;;;;;;6099971;29;20229;-76
2022/04/14 15:34:39;;;;;;;11.67;7.83;;;;;;;;;;6096926;29;20232;-75
2022/04/14 15:38:00;;;;;;;7.60;6.50;;;;;;;;;;6095561;29;20248;-76
2022/04/14 15:41:20;;;;;;;9.37;6.13;;;;;;;;;;6093812;29;20232;-77
2022/04/14 15:44:43;;;;;;;9.00;6.00;;;;;;;;;;6099128;29;20236;-76
2022/04/14 15:48:04;;;;;;;9.50;6.63;;;;;;;;;;6093179;29;20244;-75
2022/04/14 15:51:25;;;;;;;9.13;5.97;;;;;;;;;;6085773;29;20319;-76
2022/04/14 15:54:46;;;;;;;13.60;6.23;;;;;;;;;;6098248;29;20232;-77
2022/04/14 15:58:07;;;;;;;13.57;6.13;;;;;;;;;;6083044;29;20236;-77
2022/04/14 16:01:28;;;;;;;8.27;5.03;;;;;;;;;;6092982;29;20237;-77
2022/04/14 16:04:50;;;;;;;5.70;4.50;;;;;;;;;;6096407;29;20228;-76
2022/04/14 16:08:11;;;;;;;7.37;4.70;;;;;;;;;;6092997;29;20694;-76
2022/04/14 16:15:10;;;;;;;6.13;4.90;;;;;;;;;;6092657;29;20232;-76
2022/04/14 16:18:31;;;;;;;5.63;5.10;;;;;;;;;;6080845;29;20248;-74
2022/04/14 16:21:53;;;;;;;9.27;6.23;;;;;;;;;;6093822;29;20261;-77
2022/04/14 16:25:14;;;;;;;6.97;4.97;;;;;;;;;;6097777;29;20241;-75
2022/04/14 16:28:34;;;;;;;9.20;5.73;;;;;;;;;;6091060;29;20899;-77
2022/04/14 16:31:55;;;;;;;8.90;5.07;;;;;;;;;;6089804;29;20232;-75
2022/04/14 16:35:17;;;;;;;8.17;6.23;;;;;;;;;;6094281;29;20510;-77
2022/04/14 16:38:38;;;;;;;8.97;7.40;;;;;;;;;;6091888;29;20552;-76
2022/04/14 16:41:59;;;;;;;10.53;7.90;;;;;;;;;;6094404;29;20931;-75
2022/04/14 16:45:19;;;;;;;9.60;7.67;;;;;;;;;;6090691;29;20244;-77
2022/04/14 16:48:42;;;;;;;7.33;6.63;;;;;;;;;;6089696;29;20366;-77
2022/04/14 16:52:04;;;;;;;7.07;5.77;;;;;;;;;;6093381;29;20624;-76
2022/04/14 16:55:25;;;;;;;8.33;6.57;;;;;;;;;;6103226;29;20256;-76
2022/04/14 16:58:45;;;;;;;7.30;5.33;;;;;;;;;;6101340;29;20240;-76
2022/04/14 17:02:08;;;;;;;7.87;5.37;;;;;;;;;;6099924;29;20546;-76
2022/04/14 17:05:28;;;;;;;13.40;10.37;;;;;;;;;;6105502;29;20224;-76
2022/04/14 17:08:50;;;;;;;9.13;6.60;;;;;;;;;;6101123;29;20865;-76
2022/04/14 17:12:11;;;;;;;8.63;6.67;;;;;;;;;;6101423;29;20232;-78
2022/04/14 17:15:31;;;;;;;14.13;10.90;;;;;;;;;;6099329;29;20611;-76
2022/04/14 17:18:52;;;;;;;17.40;15.53;;;;;;;;;;6098289;29;20236;-76
2022/04/14 17:25:52;;;;;;;13.07;8.13;;;;;;;;;;6099737;29;20820;-77
2022/04/14 17:29:13;;;;;;;8.87;7.27;;;;;;;;;;6093462;29;20240;-76
2022/04/14 17:32:34;;;;;;;9.20;5.97;;;;;;;;;;6085277;29;20225;-77
2022/04/14 17:35:54;;;;;;;9.70;5.83;;;;;;;;;;6102936;29;20509;-76
2022/04/14 17:39:16;;;;;;;7.80;5.40;;;;;;;;;;6095876;29;20248;-76
2022/04/14 17:42:38;;;;;;;10.13;8.27;;;;;;;;;;6098648;29;20633;-76
2022/04/14 17:45:59;;;;;;;11.57;7.23;;;;;;;;;;6105209;29;20232;-75
2022/04/14 17:49:19;;;;;;;8.57;6.20;;;;;;;;;;6104172;29;20541;-76
2022/04/14 17:52:40;;;;;;;9.20;7.10;;;;;;;;;;6096169;29;20316;-76
2022/04/14 17:56:01;;;;;;;8.80;7.00;;;;;;;;;;6103862;29;20268;-77
2022/04/14 17:59:23;;;;;;;7.67;6.17;;;;;;;;;;6098569;29;20279;-78
2022/04/14 18:02:43;;;;;;;14.10;7.30;;;;;;;;;;6101649;29;20240;-77
2022/04/14 18:06:04;;;;;;;20.17;12.40;;;;;;;;;;6096371;29;20247;-77
2022/04/14 18:09:25;;;;;;;8.33;6.17;;;;;;;;;;6097251;29;20233;-76
2022/04/14 18:12:45;;;;;;;11.03;6.67;;;;;;;;;;6099895;29;20240;-77
2022/04/14 18:16:07;;;;;;;8.27;5.83;;;;;;;;;;6098234;29;20530;-76
2022/04/14 18:19:28;;;;;;;5.97;5.33;;;;;;;;;;6099758;29;20240;-76
2022/04/14 18:22:53;;;;;;;7.70;5.33;;;;;;;;;;6095618;29;20627;-76
2022/04/14 18:26:14;;;;;;;7.43;4.67;;;;;;;;;;6099437;29;20240;-77
2022/04/14 18:29:34;;;;;;;9.53;5.40;;;;;;;;;;6096738;29;20244;-76
2022/04/14 18:32:58;;;;;;;17.73;14.90;;;;;;;;;;6086791;29;20232;-76
2022/04/14 18:36:19;;;;;;;9.53;7.00;;;;;;;;;;6087761;29;20331;-76
2022/04/14 18:39:39;;;;;;;6.17;5.33;;;;;;;;;;6080710;29;20257;-76
2022/04/14 18:43:00;;;;;;;11.10;8.13;;;;;;;;;;6087682;29;20506;-77
2022/04/14 18:46:20;;;;;;;9.27;5.30;;;;;;;;;;6079529;29;20233;-77
2022/04/14 18:49:42;;;;;;;13.90;10.27;;;;;;;;;;6103118;29;20225;-77
2022/04/14 18:53:03;;;;;;;6.60;4.80;;;;;;;;;;6100436;29;20228;-77
2022/04/14 18:56:24;;;;;;;6.77;5.90;;;;;;;;;;6097923;29;20240;-77
2022/04/14 18:59:44;;;;;;;4.43;3.30;;;;;;;;;;6100036;29;20236;-76
2022/04/14 19:03:08;;;;;;;4.00;3.30;;;;;;;;;;6078808;29;20236;-77
2022/04/14 19:06:29;;;;;;;4.77;3.87;;;;;;;;;;6089119;29;20234;-76
2022/04/14 19:09:50;;;;;;;4.93;4.43;;;;;;;;;;6086992;29;20236;-77
2022/04/14 19:13:11;;;;;;;5.67;3.07;;;;;;;;;;6095861;29;20566;-77
2022/04/14 19:16:31;;;;;;;4.10;3.00;;;;;;;;;;6092592;29;20237;-78
2022/04/14 19:19:52;;;;;;;4.63;3.20;;;;;;;;;;6091508;29;20301;-78
2022/04/14 19:23:14;;;;;;;6.43;3.93;;;;;;;;;;6095032;29;20244;-77
2022/04/14 19:26:35;;;;;;;4.27;3.87;;;;;;;;;;6095631;29;20328;-76
2022/04/14 19:29:55;;;;;;;6.83;3.77;;;;;;;;;;6098534;29;20236;-77
2022/04/14 19:33:16;;;;;;;7.37;3.73;;;;;;;;;;6097156;29;20236;-77
2022/04/14 19:36:36;;;;;;;7.37;5.50;;;;;;;;;;6090094;29;20574;-78
2022/04/14 19:39:59;;;;;;;6.53;5.83;;;;;;;;;;6084385;29;20248;-78
2022/04/14 19:43:19;;;;;;;6.60;3.80;;;;;;;;;;6094768;29;20228;-77
2022/04/14 19:46:40;;;;;;;5.03;4.10;;;;;;;;;;6088037;29;20233;-77
2022/04/14 19:50:01;;;;;;;8.17;4.43;;;;;;;;;;6092671;29;20245;-78
2022/04/14 19:53:22;;;;;;;5.30;3.30;;;;;;;;;;6096841;29;20236;-76